sensor_id;sensor_type;location;lat;lon;timestamp;noise_LAeq;noise_LA_min;noise_LA_max;noise_LA01;noise_LA95
40103;Laerm;25814;48.550;9.108;2023-11-21T00:01:24;30.53;29.34;34.70;;
40103;Laerm;25814;48.550;9.108;2023-11-21T00:03:50;30.22;29.18;36.73;;
40103;Laerm;25814;48.550;9.108;2023-11-21T00:06:19;30.67;29.47;38.80;;
40103;Laerm;25814;48.550;9.108;2023-11-21T00:08:46;30.64;29.52;35.94;;
40103;Laerm;25814;48.550;9.108;2023-11-21T00:11:12;30.21;29.24;35.68;;
40103;Laerm;25814;48.550;9.108;2023-11-21T00:13:38;30.46;29.29;35.91;;
40103;Laerm;25814;48.550;9.108;2023-11-21T00:16:04;29.91;29.03;33.25;;
40103;Laerm;25814;48.550;9.108;2023-11-21T00:18:30;30.42;29.15;41.49;;
40103;Laerm;25814;48.550;9.108;2023-11-21T00:20:56;35.39;29.55;49.46;;
40103;Laerm;25814;48.550;9.108;2023-11-21T00:23:24;30.33;29.24;35.74;;
40103;Laerm;25814;48.550;9.108;2023-11-21T00:25:50;30.22;29.31;37.75;;
40103;Laerm;25814;48.550;9.108;2023-11-21T00:28:16;30.21;29.12;38.04;;
40103;Laerm;25814;48.550;9.108;2023-11-21T00:30:43;30.06;28.92;41.49;;
40103;Laerm;25814;48.550;9.108;2023-11-21T00:33:09;30.31;29.18;39.39;;
40103;Laerm;25814;48.550;9.108;2023-11-21T00:35:35;29.99;29.09;37.36;;
40103;Laerm;25814;48.550;9.108;2023-11-21T00:38:01;30.32;28.95;35.93;;
40103;Laerm;25814;48.550;9.108;2023-11-21T00:40:28;30.69;29.27;34.90;;
40103;Laerm;25814;48.550;9.108;2023-11-21T00:42:54;30.36;29.35;34.31;;
40103;Laerm;25814;48.550;9.108;2023-11-21T00:45:21;30.08;29.21;41.20;;
40103;Laerm;25814;48.550;9.108;2023-11-21T00:47:47;29.99;29.01;36.11;;
40103;Laerm;25814;48.550;9.108;2023-11-21T00:50:13;30.27;29.04;37.07;;
40103;Laerm;25814;48.550;9.108;2023-11-21T00:52:40;35.45;29.53;46.00;;
40103;Laerm;25814;48.550;9.108;2023-11-21T00:55:07;29.89;28.96;36.12;;
40103;Laerm;25814;48.550;9.108;2023-11-21T00:57:35;29.94;29.08;40.26;;
40103;Laerm;25814;48.550;9.108;2023-11-21T01:00:01;29.87;29.05;32.86;;
40103;Laerm;25814;48.550;9.108;2023-11-21T01:02:32;30.06;28.68;39.21;;
40103;Laerm;25814;48.550;9.108;2023-11-21T01:04:58;29.86;29.01;35.29;;
40103;Laerm;25814;48.550;9.108;2023-11-21T01:07:24;30.00;28.95;35.31;;
40103;Laerm;25814;48.550;9.108;2023-11-21T01:09:50;29.84;28.88;36.31;;
40103;Laerm;25814;48.550;9.108;2023-11-21T01:12:16;29.95;29.10;32.49;;
40103;Laerm;25814;48.550;9.108;2023-11-21T01:14:43;30.38;29.46;39.40;;
40103;Laerm;25814;48.550;9.108;2023-11-21T01:17:10;30.14;29.05;34.24;;
40103;Laerm;25814;48.550;9.108;2023-11-21T01:19:37;34.36;29.26;47.09;;
40103;Laerm;25814;48.550;9.108;2023-11-21T01:22:03;30.63;29.20;37.43;;
40103;Laerm;25814;48.550;9.108;2023-11-21T01:24:29;30.60;29.08;35.03;;
40103;Laerm;25814;48.550;9.108;2023-11-21T01:26:55;30.28;29.19;37.78;;
40103;Laerm;25814;48.550;9.108;2023-11-21T01:29:21;29.90;29.04;35.55;;
40103;Laerm;25814;48.550;9.108;2023-11-21T01:31:47;29.78;28.84;37.33;;
40103;Laerm;25814;48.550;9.108;2023-11-21T01:34:13;30.00;29.06;39.08;;
40103;Laerm;25814;48.550;9.108;2023-11-21T01:36:39;30.02;29.09;39.85;;
40103;Laerm;25814;48.550;9.108;2023-11-21T01:39:05;29.94;29.08;34.59;;
40103;Laerm;25814;48.550;9.108;2023-11-21T01:41:36;30.23;29.20;35.02;;
40103;Laerm;25814;48.550;9.108;2023-11-21T01:44:02;30.23;29.12;37.95;;
40103;Laerm;25814;48.550;9.108;2023-11-21T01:46:31;29.86;28.88;33.99;;
40103;Laerm;25814;48.550;9.108;2023-11-21T01:48:57;30.93;28.88;43.54;;
40103;Laerm;25814;48.550;9.108;2023-11-21T01:51:24;30.74;29.07;44.51;;
40103;Laerm;25814;48.550;9.108;2023-11-21T01:53:52;30.47;29.31;35.66;;
40103;Laerm;25814;48.550;9.108;2023-11-21T01:56:18;30.36;29.27;39.97;;
40103;Laerm;25814;48.550;9.108;2023-11-21T01:58:45;30.90;29.61;39.91;;
40103;Laerm;25814;48.550;9.108;2023-11-21T02:01:12;36.95;30.66;45.13;;
40103;Laerm;25814;48.550;9.108;2023-11-21T02:03:39;30.65;29.19;35.32;;
40103;Laerm;25814;48.550;9.108;2023-11-21T02:06:06;30.22;29.24;38.23;;
40103;Laerm;25814;48.550;9.108;2023-11-21T02:08:32;30.40;29.21;36.85;;
40103;Laerm;25814;48.550;9.108;2023-11-21T02:10:58;30.42;29.12;46.76;;
40103;Laerm;25814;48.550;9.108;2023-11-21T02:13:24;30.40;29.21;43.63;;
40103;Laerm;25814;48.550;9.108;2023-11-21T02:15:50;30.55;29.43;44.05;;
40103;Laerm;25814;48.550;9.108;2023-11-21T02:18:18;30.32;29.16;32.65;;
40103;Laerm;25814;48.550;9.108;2023-11-21T02:20:44;33.91;29.29;47.86;;
40103;Laerm;25814;48.550;9.108;2023-11-21T02:23:11;32.35;29.29;45.08;;
40103;Laerm;25814;48.550;9.108;2023-11-21T02:25:38;29.88;29.02;32.39;;
40103;Laerm;25814;48.550;9.108;2023-11-21T02:28:04;29.94;29.11;31.98;;
40103;Laerm;25814;48.550;9.108;2023-11-21T02:30:32;29.92;29.07;33.11;;
40103;Laerm;25814;48.550;9.108;2023-11-21T02:32:58;29.91;29.10;36.59;;
40103;Laerm;25814;48.550;9.108;2023-11-21T02:35:25;29.91;28.85;40.04;;
40103;Laerm;25814;48.550;9.108;2023-11-21T02:37:52;29.85;29.05;40.90;;
40103;Laerm;25814;48.550;9.108;2023-11-21T02:40:18;29.84;28.94;36.99;;
40103;Laerm;25814;48.550;9.108;2023-11-21T02:42:49;29.86;29.04;37.56;;
40103;Laerm;25814;48.550;9.108;2023-11-21T02:45:20;30.71;29.14;38.86;;
40103;Laerm;25814;48.550;9.108;2023-11-21T02:47:47;30.26;29.24;33.59;;
40103;Laerm;25814;48.550;9.108;2023-11-21T02:50:14;30.09;29.12;35.25;;
40103;Laerm;25814;48.550;9.108;2023-11-21T02:52:40;30.09;29.20;32.31;;
40103;Laerm;25814;48.550;9.108;2023-11-21T02:55:07;30.01;29.03;34.63;;
40103;Laerm;25814;48.550;9.108;2023-11-21T02:57:33;30.08;29.09;37.06;;
40103;Laerm;25814;48.550;9.108;2023-11-21T02:59:59;30.09;29.17;44.55;;
40103;Laerm;25814;48.550;9.108;2023-11-21T03:02:26;30.23;29.28;34.41;;
40103;Laerm;25814;48.550;9.108;2023-11-21T03:04:52;30.46;29.14;41.12;;
40103;Laerm;25814;48.550;9.108;2023-11-21T03:07:18;30.08;29.13;31.99;;
40103;Laerm;25814;48.550;9.108;2023-11-21T03:09:45;30.66;29.15;37.81;;
40103;Laerm;25814;48.550;9.108;2023-11-21T03:12:12;30.15;29.27;34.30;;
40103;Laerm;25814;48.550;9.108;2023-11-21T03:14:39;29.99;29.03;35.86;;
40103;Laerm;25814;48.550;9.108;2023-11-21T03:17:05;30.21;29.34;33.14;;
40103;Laerm;25814;48.550;9.108;2023-11-21T03:19:32;30.26;29.24;35.64;;
40103;Laerm;25814;48.550;9.108;2023-11-21T03:21:58;30.42;29.33;38.68;;
40103;Laerm;25814;48.550;9.108;2023-11-21T03:24:24;30.60;29.44;34.87;;
40103;Laerm;25814;48.550;9.108;2023-11-21T03:26:51;30.56;29.33;40.07;;
40103;Laerm;25814;48.550;9.108;2023-11-21T03:29:18;30.67;29.69;37.72;;
40103;Laerm;25814;48.550;9.108;2023-11-21T03:31:44;30.53;29.37;34.86;;
40103;Laerm;25814;48.550;9.108;2023-11-21T03:34:23;30.16;29.27;35.32;;
40103;Laerm;25814;48.550;9.108;2023-11-21T03:36:50;30.29;29.41;35.12;;
40103;Laerm;25814;48.550;9.108;2023-11-21T03:39:16;30.62;29.43;42.88;;
40103;Laerm;25814;48.550;9.108;2023-11-21T03:41:42;31.14;29.90;36.79;;
40103;Laerm;25814;48.550;9.108;2023-11-21T03:44:08;31.32;29.62;41.88;;
40103;Laerm;25814;48.550;9.108;2023-11-21T03:46:34;30.41;29.42;33.47;;
40103;Laerm;25814;48.550;9.108;2023-11-21T03:49:00;30.53;29.60;39.86;;
40103;Laerm;25814;48.550;9.108;2023-11-21T03:51:27;30.36;29.45;35.55;;
40103;Laerm;25814;48.550;9.108;2023-11-21T03:53:53;30.89;29.78;40.39;;
40103;Laerm;25814;48.550;9.108;2023-11-21T03:56:19;31.29;30.03;42.72;;
40103;Laerm;25814;48.550;9.108;2023-11-21T03:58:49;31.21;29.97;36.18;;
40103;Laerm;25814;48.550;9.108;2023-11-21T04:01:22;32.55;30.35;41.65;;
40103;Laerm;25814;48.550;9.108;2023-11-21T04:03:49;31.40;30.47;38.65;;
40103;Laerm;25814;48.550;9.108;2023-11-21T04:06:16;32.69;30.77;36.03;;
40103;Laerm;25814;48.550;9.108;2023-11-21T04:08:44;33.49;31.44;37.71;;
40103;Laerm;25814;48.550;9.108;2023-11-21T04:11:11;33.39;31.75;37.65;;
40103;Laerm;25814;48.550;9.108;2023-11-21T04:13:41;34.88;31.73;51.78;;
40103;Laerm;25814;48.550;9.108;2023-11-21T04:16:09;33.20;31.79;36.95;;
40103;Laerm;25814;48.550;9.108;2023-11-21T04:18:38;32.69;31.28;40.91;;
40103;Laerm;25814;48.550;9.108;2023-11-21T04:21:06;33.38;31.15;41.57;;
40103;Laerm;25814;48.550;9.108;2023-11-21T04:23:33;32.23;30.97;39.10;;
40103;Laerm;25814;48.550;9.108;2023-11-21T04:26:00;32.33;29.80;38.11;;
40103;Laerm;25814;48.550;9.108;2023-11-21T04:28:27;31.40;29.90;35.50;;
40103;Laerm;25814;48.550;9.108;2023-11-21T04:30:54;32.39;30.55;40.39;;
40103;Laerm;25814;48.550;9.108;2023-11-21T04:33:20;32.96;31.43;39.31;;
40103;Laerm;25814;48.550;9.108;2023-11-21T04:35:46;32.97;31.10;39.30;;
40103;Laerm;25814;48.550;9.108;2023-11-21T04:38:14;32.73;31.55;40.78;;
40103;Laerm;25814;48.550;9.108;2023-11-21T04:40:40;33.16;31.78;36.43;;
40103;Laerm;25814;48.550;9.108;2023-11-21T04:43:06;33.77;31.55;48.53;;
40103;Laerm;25814;48.550;9.108;2023-11-21T04:45:32;33.04;31.73;37.45;;
40103;Laerm;25814;48.550;9.108;2023-11-21T04:47:58;35.28;31.59;46.84;;
40103;Laerm;25814;48.550;9.108;2023-11-21T04:50:24;32.70;31.46;35.05;;
40103;Laerm;25814;48.550;9.108;2023-11-21T04:52:52;32.22;31.14;41.74;;
40103;Laerm;25814;48.550;9.108;2023-11-21T04:55:19;33.03;31.72;35.30;;
40103;Laerm;25814;48.550;9.108;2023-11-21T04:57:45;33.44;31.44;37.73;;
40103;Laerm;25814;48.550;9.108;2023-11-21T05:00:12;32.13;30.38;35.64;;
40103;Laerm;25814;48.550;9.108;2023-11-21T05:02:40;36.17;32.99;42.07;;
40103;Laerm;25814;48.550;9.108;2023-11-21T05:05:07;34.57;31.71;44.94;;
40103;Laerm;25814;48.550;9.108;2023-11-21T05:07:35;35.92;33.39;43.47;;
40103;Laerm;25814;48.550;9.108;2023-11-21T05:10:01;36.41;33.40;47.28;;
40103;Laerm;25814;48.550;9.108;2023-11-21T05:12:33;37.37;31.54;49.12;;
40103;Laerm;25814;48.550;9.108;2023-11-21T05:15:06;34.03;32.37;38.10;;
40103;Laerm;25814;48.550;9.108;2023-11-21T05:17:34;34.81;32.55;39.83;;
40103;Laerm;25814;48.550;9.108;2023-11-21T05:20:00;36.42;32.81;42.23;;
40103;Laerm;25814;48.550;9.108;2023-11-21T05:22:29;37.11;33.12;46.19;;
40103;Laerm;25814;48.550;9.108;2023-11-21T05:24:56;38.81;34.28;50.60;;
40103;Laerm;25814;48.550;9.108;2023-11-21T05:27:22;40.94;37.50;49.66;;
40103;Laerm;25814;48.550;9.108;2023-11-21T05:29:48;47.02;40.31;52.55;;
40103;Laerm;25814;48.550;9.108;2023-11-21T05:32:14;45.21;37.19;54.23;;
40103;Laerm;25814;48.550;9.108;2023-11-21T05:34:40;40.18;33.78;57.06;;
40103;Laerm;25814;48.550;9.108;2023-11-21T05:37:07;45.94;33.40;72.04;;
40103;Laerm;25814;48.550;9.108;2023-11-21T05:39:33;36.67;33.12;49.68;;
40103;Laerm;25814;48.550;9.108;2023-11-21T05:41:59;36.29;32.95;45.53;;
40103;Laerm;25814;48.550;9.108;2023-11-21T05:44:25;37.33;34.31;44.95;;
40103;Laerm;25814;48.550;9.108;2023-11-21T05:46:51;39.58;33.01;48.17;;
40103;Laerm;25814;48.550;9.108;2023-11-21T05:49:18;34.80;32.80;42.41;;
40103;Laerm;25814;48.550;9.108;2023-11-21T05:51:47;38.82;33.06;52.57;;
40103;Laerm;25814;48.550;9.108;2023-11-21T05:54:13;40.79;33.70;53.13;;
40103;Laerm;25814;48.550;9.108;2023-11-21T05:56:39;35.86;32.94;44.05;;
40103;Laerm;25814;48.550;9.108;2023-11-21T05:59:05;41.66;33.63;61.22;;
40103;Laerm;25814;48.550;9.108;2023-11-21T06:01:32;36.72;33.93;50.02;;
40103;Laerm;25814;48.550;9.108;2023-11-21T06:03:58;37.99;33.36;47.37;;
40103;Laerm;25814;48.550;9.108;2023-11-21T06:06:24;38.32;32.69;49.10;;
40103;Laerm;25814;48.550;9.108;2023-11-21T06:08:51;36.89;32.63;46.17;;
40103;Laerm;25814;48.550;9.108;2023-11-21T06:11:17;39.30;32.81;57.23;;
40103;Laerm;25814;48.550;9.108;2023-11-21T06:13:44;38.32;33.11;50.38;;
40103;Laerm;25814;48.550;9.108;2023-11-21T06:16:10;49.09;33.93;66.70;;
40103;Laerm;25814;48.550;9.108;2023-11-21T06:18:38;51.26;33.67;70.08;;
40103;Laerm;25814;48.550;9.108;2023-11-21T06:21:05;40.19;35.34;50.98;;
40103;Laerm;25814;48.550;9.108;2023-11-21T06:23:32;36.47;33.90;43.88;;
40103;Laerm;25814;48.550;9.108;2023-11-21T06:25:58;40.97;34.50;57.63;;
40103;Laerm;25814;48.550;9.108;2023-11-21T06:28:24;38.41;34.15;49.62;;
40103;Laerm;25814;48.550;9.108;2023-11-21T06:30:50;40.50;34.28;59.01;;
40103;Laerm;25814;48.550;9.108;2023-11-21T06:33:18;46.51;34.08;70.63;;
40103;Laerm;25814;48.550;9.108;2023-11-21T06:35:44;38.43;34.33;49.26;;
40103;Laerm;25814;48.550;9.108;2023-11-21T06:38:11;41.61;35.31;58.98;;
40103;Laerm;25814;48.550;9.108;2023-11-21T06:40:37;49.54;34.81;66.82;;
40103;Laerm;25814;48.550;9.108;2023-11-21T06:43:04;44.13;34.53;63.08;;
40103;Laerm;25814;48.550;9.108;2023-11-21T06:45:32;50.06;34.11;64.08;;
40103;Laerm;25814;48.550;9.108;2023-11-21T06:48:00;37.68;34.29;50.53;;
40103;Laerm;25814;48.550;9.108;2023-11-21T06:50:26;38.56;35.10;55.29;;
40103;Laerm;25814;48.550;9.108;2023-11-21T06:52:52;38.81;35.40;52.26;;
40103;Laerm;25814;48.550;9.108;2023-11-21T06:55:18;37.43;34.60;45.65;;
40103;Laerm;25814;48.550;9.108;2023-11-21T06:57:45;37.82;34.33;48.68;;
40103;Laerm;25814;48.550;9.108;2023-11-21T07:00:15;37.74;35.27;44.30;;
40103;Laerm;25814;48.550;9.108;2023-11-21T07:02:43;37.62;34.70;42.88;;
40103;Laerm;25814;48.550;9.108;2023-11-21T07:05:09;37.16;34.67;44.36;;
40103;Laerm;25814;48.550;9.108;2023-11-21T07:07:35;39.97;35.43;55.18;;
40103;Laerm;25814;48.550;9.108;2023-11-21T07:10:03;44.23;34.62;62.56;;
40103;Laerm;25814;48.550;9.108;2023-11-21T07:12:31;37.29;34.64;47.69;;
40103;Laerm;25814;48.550;9.108;2023-11-21T07:14:58;37.64;34.57;51.28;;
40103;Laerm;25814;48.550;9.108;2023-11-21T07:17:24;40.57;34.28;58.28;;
40103;Laerm;25814;48.550;9.108;2023-11-21T07:19:50;36.28;33.38;56.56;;
40103;Laerm;25814;48.550;9.108;2023-11-21T07:22:16;36.16;34.38;41.85;;
40103;Laerm;25814;48.550;9.108;2023-11-21T07:24:50;47.25;34.24;69.16;;
40103;Laerm;25814;48.550;9.108;2023-11-21T07:27:17;36.14;33.74;44.88;;
40103;Laerm;25814;48.550;9.108;2023-11-21T07:29:43;36.35;33.94;48.90;;
40103;Laerm;25814;48.550;9.108;2023-11-21T07:32:10;36.44;33.71;42.75;;
40103;Laerm;25814;48.550;9.108;2023-11-21T07:34:36;35.91;33.93;38.98;;
40103;Laerm;25814;48.550;9.108;2023-11-21T07:37:03;38.57;34.85;48.61;;
40103;Laerm;25814;48.550;9.108;2023-11-21T07:39:29;37.24;34.47;50.50;;
40103;Laerm;25814;48.550;9.108;2023-11-21T07:41:55;36.73;33.70;44.27;;
40103;Laerm;25814;48.550;9.108;2023-11-21T07:44:23;39.62;33.88;58.93;;
40103;Laerm;25814;48.550;9.108;2023-11-21T07:46:49;38.67;34.49;57.07;;
40103;Laerm;25814;48.550;9.108;2023-11-21T07:49:15;39.32;34.57;57.95;;
40103;Laerm;25814;48.550;9.108;2023-11-21T07:51:43;37.15;34.93;43.64;;
40103;Laerm;25814;48.550;9.108;2023-11-21T07:54:09;37.44;34.66;51.56;;
40103;Laerm;25814;48.550;9.108;2023-11-21T07:56:35;41.49;35.28;58.66;;
40103;Laerm;25814;48.550;9.108;2023-11-21T07:59:01;44.33;35.68;59.62;;
40103;Laerm;25814;48.550;9.108;2023-11-21T08:01:27;40.38;35.44;55.34;;
40103;Laerm;25814;48.550;9.108;2023-11-21T08:03:54;38.19;34.91;44.31;;
40103;Laerm;25814;48.550;9.108;2023-11-21T08:06:23;36.46;33.26;44.05;;
40103;Laerm;25814;48.550;9.108;2023-11-21T08:08:51;39.66;33.32;52.67;;
40103;Laerm;25814;48.550;9.108;2023-11-21T08:11:17;38.86;32.91;55.19;;
40103;Laerm;25814;48.550;9.108;2023-11-21T08:13:43;40.13;33.21;52.28;;
40103;Laerm;25814;48.550;9.108;2023-11-21T08:16:09;35.80;33.34;43.51;;
40103;Laerm;25814;48.550;9.108;2023-11-21T08:18:35;42.83;32.79;63.71;;
40103;Laerm;25814;48.550;9.108;2023-11-21T08:21:01;33.67;32.17;41.44;;
40103;Laerm;25814;48.550;9.108;2023-11-21T08:23:28;36.96;33.17;49.07;;
40103;Laerm;25814;48.550;9.108;2023-11-21T08:25:55;39.96;35.20;48.11;;
40103;Laerm;25814;48.550;9.108;2023-11-21T08:28:22;37.02;33.13;49.81;;
40103;Laerm;25814;48.550;9.108;2023-11-21T08:30:49;35.72;33.20;45.77;;
40103;Laerm;25814;48.550;9.108;2023-11-21T08:33:16;34.56;33.24;38.68;;
40103;Laerm;25814;48.550;9.108;2023-11-21T08:35:42;37.16;33.35;44.69;;
40103;Laerm;25814;48.550;9.108;2023-11-21T08:38:08;36.24;33.79;50.25;;
40103;Laerm;25814;48.550;9.108;2023-11-21T08:40:35;36.01;33.77;46.62;;
40103;Laerm;25814;48.550;9.108;2023-11-21T08:43:01;38.13;33.73;50.42;;
40103;Laerm;25814;48.550;9.108;2023-11-21T08:45:30;36.11;33.23;51.47;;
40103;Laerm;25814;48.550;9.108;2023-11-21T08:47:56;40.79;34.43;53.83;;
40103;Laerm;25814;48.550;9.108;2023-11-21T08:50:22;52.11;39.91;67.09;;
40103;Laerm;25814;48.550;9.108;2023-11-21T08:52:48;44.93;34.49;63.13;;
40103;Laerm;25814;48.550;9.108;2023-11-21T08:55:14;36.77;32.44;51.48;;
40103;Laerm;25814;48.550;9.108;2023-11-21T08:57:44;38.79;32.80;50.95;;
40103;Laerm;25814;48.550;9.108;2023-11-21T09:00:12;38.56;32.88;52.71;;
40103;Laerm;25814;48.550;9.108;2023-11-21T09:02:39;35.17;31.92;50.09;;
40103;Laerm;25814;48.550;9.108;2023-11-21T09:05:13;34.35;31.72;44.63;;
40103;Laerm;25814;48.550;9.108;2023-11-21T09:07:42;37.42;32.55;46.15;;
40103;Laerm;25814;48.550;9.108;2023-11-21T09:10:09;38.62;33.48;54.04;;
40103;Laerm;25814;48.550;9.108;2023-11-21T09:12:36;38.89;33.21;49.03;;
40103;Laerm;25814;48.550;9.108;2023-11-21T09:15:04;42.87;32.16;62.17;;
40103;Laerm;25814;48.550;9.108;2023-11-21T09:17:32;39.37;31.96;50.82;;
40103;Laerm;25814;48.550;9.108;2023-11-21T09:19:59;35.19;32.55;42.32;;
40103;Laerm;25814;48.550;9.108;2023-11-21T09:22:25;35.33;32.26;44.42;;
40103;Laerm;25814;48.550;9.108;2023-11-21T09:24:52;33.89;31.05;48.55;;
40103;Laerm;25814;48.550;9.108;2023-11-21T09:27:19;36.58;31.04;42.59;;
40103;Laerm;25814;48.550;9.108;2023-11-21T09:29:47;33.78;31.05;41.29;;
40103;Laerm;25814;48.550;9.108;2023-11-21T09:32:14;34.75;31.99;40.83;;
40103;Laerm;25814;48.550;9.108;2023-11-21T09:34:41;33.83;31.71;43.31;;
40103;Laerm;25814;48.550;9.108;2023-11-21T09:37:08;34.54;31.49;42.55;;
40103;Laerm;25814;48.550;9.108;2023-11-21T09:39:35;38.50;32.60;60.98;;
40103;Laerm;25814;48.550;9.108;2023-11-21T09:42:11;34.99;31.55;48.10;;
40103;Laerm;25814;48.550;9.108;2023-11-21T09:45:15;38.39;31.79;56.68;;
40103;Laerm;25814;48.550;9.108;2023-11-21T09:47:39;39.92;31.29;55.85;;
40103;Laerm;25814;48.550;9.108;2023-11-21T09:50:06;35.60;30.68;47.24;;
40103;Laerm;25814;48.550;9.108;2023-11-21T09:53:17;38.90;30.77;53.64;;
40103;Laerm;25814;48.550;9.108;2023-11-21T09:55:48;34.91;30.87;45.70;;
40103;Laerm;25814;48.550;9.108;2023-11-21T09:58:17;39.86;30.72;49.51;;
40103;Laerm;25814;48.550;9.108;2023-11-21T10:00:47;35.62;32.75;45.36;;
40103;Laerm;25814;48.550;9.108;2023-11-21T10:03:14;34.60;30.15;40.36;;
40103;Laerm;25814;48.550;9.108;2023-11-21T10:05:45;35.19;30.99;50.71;;
40103;Laerm;25814;48.550;9.108;2023-11-21T10:08:12;38.65;31.28;49.28;;
40103;Laerm;25814;48.550;9.108;2023-11-21T10:10:49;37.14;31.65;52.71;;
40103;Laerm;25814;48.550;9.108;2023-11-21T10:13:18;33.69;30.64;44.77;;
40103;Laerm;25814;48.550;9.108;2023-11-21T10:15:51;39.56;31.14;58.59;;
40103;Laerm;25814;48.550;9.108;2023-11-21T10:18:18;36.92;32.80;46.39;;
40103;Laerm;25814;48.550;9.108;2023-11-21T10:20:45;39.57;31.49;55.56;;
40103;Laerm;25814;48.550;9.108;2023-11-21T10:23:19;38.79;31.64;50.58;;
40103;Laerm;25814;48.550;9.108;2023-11-21T10:25:47;35.99;31.31;49.48;;
40103;Laerm;25814;48.550;9.108;2023-11-21T10:28:13;34.07;31.02;44.67;;
40103;Laerm;25814;48.550;9.108;2023-11-21T10:30:40;40.82;31.27;53.38;;
40103;Laerm;25814;48.550;9.108;2023-11-21T10:33:07;37.72;31.80;49.98;;
40103;Laerm;25814;48.550;9.108;2023-11-21T10:35:47;33.55;31.74;38.83;;
40103;Laerm;25814;48.550;9.108;2023-11-21T10:38:17;34.17;31.50;42.25;;
40103;Laerm;25814;48.550;9.108;2023-11-21T10:40:45;34.84;31.95;45.21;;
40103;Laerm;25814;48.550;9.108;2023-11-21T10:43:12;48.99;35.07;55.97;;
40103;Laerm;25814;48.550;9.108;2023-11-21T10:45:39;39.36;32.01;47.30;;
40103;Laerm;25814;48.550;9.108;2023-11-21T10:48:06;33.82;31.34;41.14;;
40103;Laerm;25814;48.550;9.108;2023-11-21T10:50:41;46.40;32.42;56.57;;
40103;Laerm;25814;48.550;9.108;2023-11-21T10:53:07;49.52;41.29;60.22;;
40103;Laerm;25814;48.550;9.108;2023-11-21T10:55:34;38.79;35.63;43.39;;
40103;Laerm;25814;48.550;9.108;2023-11-21T10:58:02;39.88;37.63;50.00;;
40103;Laerm;25814;48.550;9.108;2023-11-21T11:00:32;38.74;35.29;49.33;;
40103;Laerm;25814;48.550;9.108;2023-11-21T11:03:00;58.75;31.83;83.34;;
40103;Laerm;25814;48.550;9.108;2023-11-21T11:05:28;60.91;31.59;79.78;;
40103;Laerm;25814;48.550;9.108;2023-11-21T11:08:08;50.45;31.86;76.12;;
40103;Laerm;25814;48.550;9.108;2023-11-21T11:10:37;33.35;30.62;47.96;;
40103;Laerm;25814;48.550;9.108;2023-11-21T11:13:04;33.28;30.61;41.84;;
40103;Laerm;25814;48.550;9.108;2023-11-21T11:15:32;34.37;31.22;44.17;;
40103;Laerm;25814;48.550;9.108;2023-11-21T11:17:59;38.76;31.37;50.05;;
40103;Laerm;25814;48.550;9.108;2023-11-21T11:20:36;38.49;30.78;55.82;;
40103;Laerm;25814;48.550;9.108;2023-11-21T11:23:58;54.03;30.55;74.66;;
40103;Laerm;25814;48.550;9.108;2023-11-21T11:38:52;35.02;31.43;56.47;;
40103;Laerm;25814;48.550;9.108;2023-11-21T11:41:30;33.75;31.09;43.77;;
40103;Laerm;25814;48.550;9.108;2023-11-21T11:44:00;35.01;30.12;45.47;;
40103;Laerm;25814;48.550;9.108;2023-11-21T11:46:41;38.38;29.90;58.70;;
40103;Laerm;25814;48.550;9.108;2023-11-21T11:49:07;57.67;29.69;82.05;;
40103;Laerm;25814;48.550;9.108;2023-11-21T11:51:34;50.88;30.04;74.36;;
40103;Laerm;25814;48.550;9.108;2023-11-21T11:54:01;33.45;30.00;50.34;;
40103;Laerm;25814;48.550;9.108;2023-11-21T11:56:31;33.22;29.81;53.69;;
40103;Laerm;25814;48.550;9.108;2023-11-21T11:59:03;31.77;29.66;43.67;;
40103;Laerm;25814;48.550;9.108;2023-11-21T12:01:31;35.89;30.15;44.99;;
40103;Laerm;25814;48.550;9.108;2023-11-21T12:06:41;34.25;30.19;54.83;;
40103;Laerm;25814;48.550;9.108;2023-11-21T12:09:18;37.97;30.29;54.64;;
40103;Laerm;25814;48.550;9.108;2023-11-21T12:11:46;39.94;37.29;50.24;;
40103;Laerm;25814;48.550;9.108;2023-11-21T12:14:14;40.43;37.21;62.06;;
40103;Laerm;25814;48.550;9.108;2023-11-21T12:16:41;52.52;36.49;67.30;;
40103;Laerm;25814;48.550;9.108;2023-11-21T12:19:10;38.35;36.26;47.82;;
40103;Laerm;25814;48.550;9.108;2023-11-21T12:21:36;39.05;36.67;43.04;;
40103;Laerm;25814;48.550;9.108;2023-11-21T12:24:03;40.58;35.28;48.65;;
40103;Laerm;25814;48.550;9.108;2023-11-21T12:26:29;39.45;34.34;51.54;;
40103;Laerm;25814;48.550;9.108;2023-11-21T12:28:56;38.31;32.13;47.36;;
40103;Laerm;25814;48.550;9.108;2023-11-21T12:31:23;37.45;31.51;47.36;;
40103;Laerm;25814;48.550;9.108;2023-11-21T12:33:50;36.89;31.91;48.62;;
40103;Laerm;25814;48.550;9.108;2023-11-21T12:36:17;36.65;33.66;44.26;;
40103;Laerm;25814;48.550;9.108;2023-11-21T12:38:43;37.45;33.87;47.38;;
40103;Laerm;25814;48.550;9.108;2023-11-21T12:41:10;35.81;32.30;41.89;;
40103;Laerm;25814;48.550;9.108;2023-11-21T12:43:36;33.76;31.43;39.62;;
40103;Laerm;25814;48.550;9.108;2023-11-21T12:48:32;33.64;30.86;42.35;;
40103;Laerm;25814;48.550;9.108;2023-11-21T12:50:59;34.07;31.08;41.71;;
40103;Laerm;25814;48.550;9.108;2023-11-21T12:53:28;34.43;30.48;48.64;;
40103;Laerm;25814;48.550;9.108;2023-11-21T12:56:11;34.81;30.53;44.74;;
40103;Laerm;25814;48.550;9.108;2023-11-21T12:58:39;38.24;30.43;47.07;;
40103;Laerm;25814;48.550;9.108;2023-11-21T13:01:08;38.62;30.81;50.07;;
40103;Laerm;25814;48.550;9.108;2023-11-21T13:03:40;35.63;32.26;43.95;;
40103;Laerm;25814;48.550;9.108;2023-11-21T13:06:10;34.36;32.12;41.26;;
40103;Laerm;25814;48.550;9.108;2023-11-21T13:08:37;35.27;32.10;48.48;;
40103;Laerm;25814;48.550;9.108;2023-11-21T13:11:05;35.68;32.42;45.63;;
40103;Laerm;25814;48.550;9.108;2023-11-21T13:13:32;36.44;32.29;47.12;;
40103;Laerm;25814;48.550;9.108;2023-11-21T13:16:01;33.08;31.93;38.42;;
40103;Laerm;25814;48.550;9.108;2023-11-21T13:18:30;35.79;32.09;48.20;;
40103;Laerm;25814;48.550;9.108;2023-11-21T13:21:03;36.65;33.34;44.89;;
40103;Laerm;25814;48.550;9.108;2023-11-21T13:23:35;39.40;32.23;51.29;;
40103;Laerm;25814;48.550;9.108;2023-11-21T13:26:03;34.08;31.15;48.87;;
40103;Laerm;25814;48.550;9.108;2023-11-21T13:28:33;36.52;31.13;48.09;;
40103;Laerm;25814;48.550;9.108;2023-11-21T13:31:00;34.60;31.12;52.67;;
40103;Laerm;25814;48.550;9.108;2023-11-21T13:33:35;33.37;31.02;43.20;;
40103;Laerm;25814;48.550;9.108;2023-11-21T13:36:05;33.06;30.95;48.39;;
40103;Laerm;25814;48.550;9.108;2023-11-21T13:38:33;34.71;30.78;52.73;;
40103;Laerm;25814;48.550;9.108;2023-11-21T13:41:01;41.69;31.36;53.16;;
40103;Laerm;25814;48.550;9.108;2023-11-21T13:43:28;38.98;31.15;51.81;;
40103;Laerm;25814;48.550;9.108;2023-11-21T13:45:54;33.80;30.95;45.81;;
40103;Laerm;25814;48.550;9.108;2023-11-21T13:48:28;32.10;30.79;41.65;;
40103;Laerm;25814;48.550;9.108;2023-11-21T13:51:03;32.65;30.77;48.84;;
40103;Laerm;25814;48.550;9.108;2023-11-21T13:53:45;35.96;31.45;60.89;;
40103;Laerm;25814;48.550;9.108;2023-11-21T13:56:13;36.32;31.08;46.73;;
40103;Laerm;25814;48.550;9.108;2023-11-21T13:58:45;34.69;32.47;45.04;;
40103;Laerm;25814;48.550;9.108;2023-11-21T14:01:24;34.38;31.44;45.21;;
40103;Laerm;25814;48.550;9.108;2023-11-21T14:04:00;35.97;32.61;46.08;;
40103;Laerm;25814;48.550;9.108;2023-11-21T14:06:50;36.52;32.40;48.69;;